GCC Virtual Airport Information Service

Kansai International Airport

ICAO: RJBB Country: JP
Latitude: 34.4273 Longitude: 135.244
Latest Arrival : GCT10141 (EGCC-RJBB) Latest Departure : GCT10141 (RJBB-MMMX)


WX CaptureLIVE
Data provided by noaa.gov | Fetched at 07:40:32

METAR : RJBB 270700Z 01018KT 9999 FEW025 12/05 Q1015 NOSIG

TAF : RJBB 270505Z 2706/2812 02018KT 9999 FEW025 SCT050 BECMG 2721/2800 04008KT BECMG 2803/2806 25012KT


Runway Data for RJBB
Data provided by openaviationdata.com

Runway ID Mag Var Hdg Length Elevation Surface ILS Freq ILS Id ILS Slope
6 -7 57° 11483 ft 15 ft Asphalt 108.1 IKD 3
24 -7 237° 11483 ft 15 ft Asphalt 110.7 IKN 3

Kansai International Airport, JP
Use only for reference purposes



Not for navigational purposes.